createdAt,value
2019-01-08T00:01:52.087Z,4.40
2019-01-08T00:04:23.048Z,2.53
2019-01-08T00:06:53.910Z,2.97
2019-01-08T00:09:24.838Z,3.40
2019-01-08T00:11:55.711Z,2.80
2019-01-08T00:14:26.581Z,1.60
2019-01-08T00:16:58.093Z,2.37
2019-01-08T00:19:29.006Z,3.20
2019-01-08T00:21:59.919Z,2.40
2019-01-08T00:24:30.943Z,1.90
2019-01-08T00:27:02.193Z,1.80
2019-01-08T00:29:33.355Z,1.80
2019-01-08T00:32:04.284Z,2.10
2019-01-08T00:34:35.181Z,1.93
2019-01-08T00:37:06.120Z,1.83
2019-01-08T00:39:37.053Z,2.50
2019-01-08T00:42:08.014Z,2.10
2019-01-08T00:44:38.891Z,2.70
2019-01-08T00:47:09.825Z,2.90
2019-01-08T00:49:40.707Z,3.00
2019-01-08T00:52:11.574Z,3.30
2019-01-08T00:54:42.535Z,4.03
2019-01-08T00:57:13.479Z,4.60
2019-01-08T00:59:44.347Z,4.23
2019-01-08T01:02:15.555Z,6.17
2019-01-08T01:04:46.426Z,6.17
2019-01-08T01:07:17.365Z,6.10
2019-01-08T01:09:48.598Z,5.50
2019-01-08T01:12:19.491Z,5.93
2019-01-08T01:14:50.398Z,6.10
2019-01-08T01:17:21.332Z,5.63
2019-01-08T01:19:52.215Z,6.73
2019-01-08T01:22:23.510Z,5.70
2019-01-08T01:24:54.756Z,6.07
2019-01-08T01:27:25.913Z,5.03
2019-01-08T01:29:56.807Z,5.00
2019-01-08T01:32:28.329Z,4.67
2019-01-08T01:34:59.247Z,4.13
2019-01-08T01:37:30.148Z,4.87
2019-01-08T01:40:01.756Z,4.40
2019-01-08T01:42:32.634Z,3.80
2019-01-08T01:45:03.511Z,3.83
2019-01-08T01:47:34.432Z,3.70
2019-01-08T01:50:05.777Z,3.57
2019-01-08T01:52:36.677Z,3.73
2019-01-08T01:55:07.729Z,3.50
2019-01-08T01:57:38.634Z,3.63
2019-01-08T02:00:09.916Z,3.70
2019-01-08T02:02:40.890Z,3.90
2019-01-08T02:05:11.833Z,3.87
2019-01-08T02:07:42.811Z,4.33
2019-01-08T02:10:14.038Z,3.60
2019-01-08T02:12:44.931Z,3.80
2019-01-08T02:15:15.852Z,3.57
2019-01-08T02:17:46.814Z,4.00
2019-01-08T02:20:17.676Z,3.87
2019-01-08T02:22:48.569Z,3.03
2019-01-08T02:25:19.485Z,2.87
2019-01-08T02:27:50.470Z,2.87
2019-01-08T02:30:21.680Z,2.93
2019-01-08T02:32:52.600Z,3.80
2019-01-08T02:35:23.475Z,3.50
2019-01-08T02:37:54.709Z,3.63
2019-01-08T02:40:25.641Z,3.50
2019-01-08T02:42:56.533Z,4.70
2019-01-08T02:45:27.502Z,3.40
2019-01-08T02:47:58.707Z,4.53
2019-01-08T02:50:29.576Z,4.23
2019-01-08T02:53:00.459Z,4.00
2019-01-08T02:55:31.465Z,3.80
2019-01-08T02:58:02.366Z,3.80
2019-01-08T03:00:33.332Z,3.97
2019-01-08T03:03:04.287Z,3.70
2019-01-08T03:05:35.161Z,5.77
2019-01-08T03:08:06.034Z,3.50
2019-01-08T03:10:37.053Z,3.40
2019-01-08T03:13:07.938Z,3.57
2019-01-08T03:15:38.810Z,4.67
2019-01-08T03:18:10.029Z,3.23
2019-01-08T03:20:40.900Z,4.17
2019-01-08T03:23:11.776Z,6.10
2019-01-08T03:25:42.704Z,4.10
2019-01-08T03:28:13.888Z,3.60
2019-01-08T03:30:44.793Z,3.50
2019-01-08T03:33:15.824Z,3.43
2019-01-08T03:35:47.000Z,4.30
2019-01-08T03:38:17.923Z,3.70
2019-01-08T03:40:49.423Z,3.80
2019-01-08T03:43:20.327Z,4.53
2019-01-08T03:45:51.208Z,3.50
2019-01-08T03:48:22.743Z,4.27
2019-01-08T03:50:53.613Z,4.47
2019-01-08T03:53:24.590Z,4.10
2019-01-08T03:55:55.542Z,3.60
2019-01-08T03:58:26.460Z,3.00
2019-01-08T04:00:57.399Z,4.37
2019-01-08T04:03:28.332Z,5.30
2019-01-08T04:05:59.303Z,4.20
2019-01-08T04:08:30.813Z,3.67
2019-01-08T04:11:01.793Z,3.60
2019-01-08T04:13:32.671Z,3.43
2019-01-08T04:16:03.553Z,3.73
2019-01-08T04:18:34.470Z,3.70
2019-01-08T04:21:05.351Z,3.73
2019-01-08T04:23:36.241Z,4.47
2019-01-08T04:26:07.175Z,2.67
2019-01-08T04:28:38.354Z,2.80
2019-01-08T04:31:09.211Z,2.60
2019-01-08T04:33:40.150Z,2.30
2019-01-08T04:36:11.047Z,3.33
2019-01-08T04:38:42.514Z,3.10
2019-01-08T04:41:13.448Z,3.67
2019-01-08T04:43:44.327Z,2.73
2019-01-08T04:46:15.246Z,2.40
2019-01-08T04:48:46.159Z,2.40
2019-01-08T04:51:17.042Z,2.33
2019-01-08T04:53:47.945Z,2.17
2019-01-08T04:56:18.950Z,1.90
2019-01-08T04:58:49.827Z,2.23
2019-01-08T05:01:20.697Z,2.47
2019-01-08T05:03:52.095Z,2.73
2019-01-08T05:06:23.010Z,2.50
2019-01-08T05:08:53.884Z,1.80
2019-01-08T05:11:24.801Z,1.83
2019-01-08T05:13:55.733Z,2.00
2019-01-08T05:16:26.646Z,1.90
2019-01-08T05:18:57.578Z,3.10
2019-01-08T05:21:28.754Z,2.80
2019-01-08T05:23:59.708Z,3.90
2019-01-08T05:26:31.715Z,2.07
2019-01-08T05:29:02.583Z,2.57
2019-01-08T05:31:33.466Z,2.70
2019-01-08T05:34:04.385Z,3.23
2019-01-08T05:36:35.585Z,2.33
2019-01-08T05:39:07.493Z,2.20
2019-01-08T05:41:38.718Z,3.97
2019-01-08T05:44:09.603Z,3.57
2019-01-08T05:46:40.500Z,4.23
2019-01-08T05:49:11.754Z,2.67
2019-01-08T05:51:42.661Z,3.30
2019-01-08T05:54:13.545Z,3.87
2019-01-08T05:56:45.065Z,4.73
2019-01-08T05:59:15.949Z,2.67
2019-01-08T06:01:47.116Z,3.20
2019-01-08T06:04:18.037Z,3.30
2019-01-08T06:06:48.947Z,3.50
2019-01-08T06:09:19.881Z,4.10
2019-01-08T06:11:50.796Z,4.30
2019-01-08T06:14:21.978Z,4.00
2019-01-08T06:16:52.948Z,3.70
2019-01-08T06:19:23.807Z,3.63
2019-01-08T06:21:55.008Z,3.20
2019-01-08T06:24:25.948Z,3.17
2019-01-08T06:26:56.858Z,2.80
2019-01-08T06:29:27.740Z,3.53
2019-01-08T06:31:58.670Z,3.77
2019-01-08T06:34:29.579Z,2.60
2019-01-08T06:37:00.483Z,3.70
2019-01-08T06:39:31.429Z,4.30
2019-01-08T06:42:02.635Z,3.57
2019-01-08T06:44:33.791Z,3.17
2019-01-08T06:47:04.710Z,3.63
2019-01-08T06:49:35.587Z,3.70
2019-01-08T06:52:06.778Z,3.40
2019-01-08T06:54:37.824Z,2.77
2019-01-08T06:57:08.977Z,2.80
2019-01-08T06:59:40.154Z,3.47
2019-01-08T07:02:11.106Z,3.77
2019-01-08T07:04:41.971Z,3.00
2019-01-08T07:07:13.144Z,3.67
2019-01-08T07:09:44.661Z,2.70
2019-01-08T07:12:15.593Z,3.93
2019-01-08T07:14:46.932Z,4.33
2019-01-08T07:17:18.136Z,3.40
2019-01-08T07:19:49.316Z,3.43
2019-01-08T07:22:20.205Z,2.70
2019-01-08T07:24:51.142Z,3.10
2019-01-08T07:27:22.075Z,2.80
2019-01-08T07:29:52.949Z,3.97
2019-01-08T07:32:23.861Z,3.10
2019-01-08T07:34:54.747Z,3.53
2019-01-08T07:37:25.758Z,3.17
2019-01-08T07:39:56.740Z,4.10
2019-01-08T07:42:27.988Z,3.43
2019-01-08T07:44:58.863Z,4.10
2019-01-08T07:47:29.802Z,3.83
2019-01-08T07:50:01.374Z,3.87
2019-01-08T07:52:32.335Z,3.90
2019-01-08T07:55:03.265Z,4.20
2019-01-08T07:57:34.439Z,4.83
2019-01-08T08:00:05.990Z,3.60
2019-01-08T08:02:36.916Z,3.70
2019-01-08T08:05:08.344Z,2.87
2019-01-08T08:07:39.287Z,4.23
2019-01-08T08:10:10.586Z,3.60
2019-01-08T08:12:41.786Z,4.03
2019-01-08T08:15:12.707Z,4.77
2019-01-08T08:17:43.774Z,3.27
2019-01-08T08:20:14.645Z,4.00
2019-01-08T08:22:45.792Z,3.90
2019-01-08T08:25:17.038Z,3.70
2019-01-08T08:27:47.931Z,4.10
2019-01-08T08:30:19.129Z,4.00
2019-01-08T08:32:50.062Z,3.93
2019-01-08T08:35:20.949Z,4.23
2019-01-08T08:37:51.865Z,4.13
2019-01-08T08:40:23.128Z,5.13
2019-01-08T08:42:54.037Z,4.40
2019-01-08T08:45:25.199Z,4.80
2019-01-08T08:47:56.130Z,4.13
2019-01-08T08:50:26.995Z,5.20
2019-01-08T08:52:57.917Z,3.67
2019-01-08T08:55:29.170Z,4.00
2019-01-08T08:58:00.087Z,4.23
2019-01-08T09:00:31.020Z,4.00
2019-01-08T09:03:02.018Z,3.70
2019-01-08T09:05:32.909Z,3.90
2019-01-08T09:08:04.102Z,3.60
2019-01-08T09:10:35.025Z,3.33
2019-01-08T09:13:05.919Z,3.77
2019-01-08T09:15:36.827Z,2.87
2019-01-08T09:18:07.768Z,3.07
2019-01-08T09:20:39.057Z,3.70
2019-01-08T09:23:10.017Z,3.60
2019-01-08T09:25:40.993Z,3.80
2019-01-08T09:28:11.913Z,4.47
2019-01-08T09:30:42.845Z,2.93
2019-01-08T09:33:13.783Z,4.20
2019-01-08T09:35:44.938Z,3.43
2019-01-08T09:38:15.843Z,4.17
2019-01-08T09:40:47.088Z,3.97
2019-01-08T09:43:18.065Z,3.27
2019-01-08T09:45:48.969Z,3.53
2019-01-08T09:48:19.890Z,3.23
2019-01-08T09:50:50.837Z,2.53
2019-01-08T09:53:21.722Z,3.47
2019-01-08T09:55:52.635Z,2.80
2019-01-08T09:58:23.510Z,2.20
2019-01-08T10:00:54.399Z,2.80
2019-01-08T10:03:25.677Z,2.57
2019-01-08T10:05:56.635Z,3.30
2019-01-08T10:08:27.525Z,2.20
2019-01-08T10:10:58.493Z,3.17
2019-01-08T10:13:29.372Z,2.67
2019-01-08T10:16:02.630Z,1.43
2019-01-08T10:18:33.574Z,2.57
2019-01-08T10:21:04.525Z,1.70
2019-01-08T10:23:35.701Z,2.03
2019-01-08T10:26:06.967Z,2.20
2019-01-08T10:28:37.818Z,2.77
2019-01-08T10:31:08.702Z,2.77
2019-01-08T10:33:39.617Z,2.90
2019-01-08T10:36:10.721Z,2.53
2019-01-08T10:38:41.654Z,3.00
2019-01-08T10:41:12.667Z,3.00
2019-01-08T10:43:44.149Z,3.20
2019-01-08T10:46:15.040Z,3.80
2019-01-08T10:48:45.970Z,2.77
2019-01-08T10:51:16.933Z,3.47
2019-01-08T10:53:47.846Z,3.40
2019-01-08T10:56:19.081Z,2.97
2019-01-08T10:58:50.272Z,3.50
2019-01-08T11:01:21.560Z,4.87
2019-01-08T11:03:52.811Z,2.73
2019-01-08T11:06:23.701Z,3.07
2019-01-08T11:08:54.591Z,3.37
2019-01-08T11:11:25.576Z,3.53
2019-01-08T11:13:56.574Z,3.30
2019-01-08T11:16:27.737Z,3.00
2019-01-08T11:18:58.945Z,3.17
2019-01-08T11:21:30.117Z,1.87
2019-01-08T11:24:01.314Z,3.50
2019-01-08T11:26:32.228Z,2.30
2019-01-08T11:29:03.104Z,3.00
2019-01-08T11:31:33.979Z,3.00
2019-01-08T11:34:04.919Z,2.10
2019-01-08T11:36:35.818Z,2.40
2019-01-08T11:39:08.159Z,1.73
2019-01-08T11:41:39.116Z,2.93
2019-01-08T11:44:10.005Z,2.57
2019-01-08T11:46:41.156Z,1.80
2019-01-08T11:49:12.373Z,2.70
2019-01-08T11:51:43.248Z,3.03
2019-01-08T11:54:14.119Z,3.40
2019-01-08T11:56:45.332Z,4.83
2019-01-08T11:59:16.548Z,13.80
2019-01-08T12:01:48.101Z,3.00
2019-01-08T12:04:19.005Z,3.53
2019-01-08T12:06:49.872Z,3.97
2019-01-08T12:09:20.775Z,4.27
2019-01-08T12:11:51.681Z,4.50
2019-01-08T12:14:22.949Z,4.00
2019-01-08T12:16:53.884Z,4.97
2019-01-08T12:19:24.802Z,4.20
2019-01-08T12:21:55.736Z,3.90
2019-01-08T12:24:26.941Z,4.40
2019-01-08T12:26:57.907Z,6.03
2019-01-08T12:29:28.779Z,5.13
2019-01-08T12:32:06.005Z,5.20
2019-01-08T12:34:32.595Z,4.10
2019-01-08T12:37:03.600Z,4.37
2019-01-08T12:39:34.562Z,4.33
2019-01-08T12:42:05.657Z,4.53
2019-01-08T12:44:36.853Z,3.60
2019-01-08T12:47:08.611Z,4.00
2019-01-08T12:49:39.558Z,4.67
2019-01-08T12:52:10.767Z,3.73
2019-01-08T12:54:42.031Z,4.60
2019-01-08T12:57:12.944Z,6.00
2019-01-08T12:59:43.940Z,5.63
2019-01-08T13:02:15.099Z,4.93
2019-01-08T13:04:46.111Z,4.63
2019-01-08T13:07:17.736Z,5.80
2019-01-08T13:09:48.619Z,7.00
2019-01-08T13:12:19.528Z,5.47
2019-01-08T13:14:50.767Z,6.10
2019-01-08T13:17:21.661Z,5.90
2019-01-08T13:19:52.619Z,4.40
2019-01-08T13:22:23.576Z,5.87
2019-01-08T13:24:54.712Z,5.30
2019-01-08T13:27:25.626Z,4.80
2019-01-08T13:29:56.507Z,5.43
2019-01-08T13:32:27.398Z,4.30
2019-01-08T13:35:01.162Z,4.37
2019-01-08T13:37:32.080Z,4.33
2019-01-08T13:40:03.371Z,4.80
2019-01-08T13:42:34.354Z,5.03
2019-01-08T13:45:05.639Z,4.93
2019-01-08T13:47:36.586Z,3.70
2019-01-08T13:50:09.096Z,4.77
2019-01-08T13:52:40.256Z,4.67
2019-01-08T13:55:11.162Z,3.80
2019-01-08T13:57:42.375Z,5.00
2019-01-08T14:00:13.423Z,6.00
2019-01-08T14:02:44.299Z,5.60
2019-01-08T14:05:15.241Z,5.47
2019-01-08T14:07:46.126Z,4.53
2019-01-08T14:10:17.029Z,5.10
2019-01-08T14:12:47.943Z,4.83
2019-01-08T14:15:18.870Z,3.87
2019-01-08T14:17:49.811Z,5.40
2019-01-08T14:20:21.070Z,4.80
2019-01-08T14:22:51.981Z,5.27
2019-01-08T14:25:29.001Z,5.40
2019-01-08T14:28:00.613Z,5.03
2019-01-08T14:30:31.558Z,5.40
2019-01-08T14:33:02.762Z,5.70
2019-01-08T14:35:34.097Z,6.20
2019-01-08T14:38:05.100Z,5.80
2019-01-08T14:40:36.324Z,5.73
2019-01-08T14:43:13.959Z,4.27
2019-01-08T14:45:41.118Z,5.53
2019-01-08T14:48:12.009Z,4.60
2019-01-08T14:50:43.285Z,4.93
2019-01-08T14:53:14.205Z,4.67
2019-01-08T14:55:45.404Z,4.90
2019-01-08T14:58:16.660Z,5.67
2019-01-08T15:00:47.580Z,4.60
2019-01-08T15:03:18.788Z,4.93
2019-01-08T15:05:50.164Z,4.30
2019-01-08T15:08:21.060Z,3.97
2019-01-08T15:10:52.022Z,4.73
2019-01-08T15:13:22.902Z,5.70
2019-01-08T15:15:53.824Z,4.73
2019-01-08T15:18:25.086Z,4.77
2019-01-08T15:20:55.957Z,4.60
2019-01-08T15:23:26.890Z,4.10
2019-01-08T15:25:57.901Z,5.00
2019-01-08T15:28:28.786Z,5.23
2019-01-08T15:30:59.695Z,6.20
2019-01-08T15:33:30.590Z,4.23
2019-01-08T15:36:01.814Z,4.77
2019-01-08T15:38:32.709Z,6.00
2019-01-08T15:41:03.673Z,6.20
2019-01-08T15:43:34.607Z,5.00
2019-01-08T15:46:06.174Z,6.20
2019-01-08T15:48:37.247Z,4.90
2019-01-08T15:51:08.206Z,5.30
2019-01-08T15:53:39.144Z,5.33
2019-01-08T15:56:10.077Z,5.13
2019-01-08T15:58:41.605Z,5.10
2019-01-08T16:01:12.857Z,5.70
2019-01-08T16:03:43.905Z,5.33
2019-01-08T16:06:14.937Z,4.80
2019-01-08T16:08:45.894Z,4.37
2019-01-08T16:11:16.823Z,6.27
2019-01-08T16:13:49.530Z,6.77
2019-01-08T16:16:20.732Z,6.63
2019-01-08T16:18:51.620Z,4.30
2019-01-08T16:21:22.833Z,5.47
2019-01-08T16:23:54.043Z,4.10
2019-01-08T16:26:24.996Z,3.57
2019-01-08T16:28:55.953Z,3.93
2019-01-08T16:31:26.891Z,3.13
2019-01-08T16:33:57.869Z,2.60
2019-01-08T16:36:28.785Z,2.67
2019-01-08T16:38:59.840Z,3.27
2019-01-08T16:41:30.852Z,3.53
2019-01-08T16:44:01.788Z,2.60
2019-01-08T16:46:32.796Z,3.20
2019-01-08T16:49:04.088Z,2.97
2019-01-08T16:51:35.429Z,2.90
2019-01-08T16:54:06.463Z,4.00
2019-01-08T16:56:37.713Z,3.23
2019-01-08T16:59:09.050Z,4.73
2019-01-08T17:01:40.308Z,4.40
2019-01-08T17:04:11.275Z,3.63
2019-01-08T17:06:42.772Z,3.77
2019-01-08T17:09:13.714Z,4.40
2019-01-08T17:11:44.631Z,4.00
2019-01-08T17:14:15.556Z,3.83
2019-01-08T17:16:46.583Z,3.37
2019-01-08T17:19:17.476Z,2.60
2019-01-08T17:21:48.403Z,3.43
2019-01-08T17:24:19.343Z,4.13
2019-01-08T17:26:50.241Z,3.50
2019-01-08T17:29:21.494Z,4.07
2019-01-08T17:31:52.419Z,4.00
2019-01-08T17:34:23.342Z,3.47
2019-01-08T17:36:54.673Z,3.40
2019-01-08T17:39:43.408Z,3.70
2019-01-08T17:42:14.391Z,6.50
2019-01-08T17:44:48.393Z,3.40
2019-01-08T17:47:19.373Z,2.90
2019-01-08T17:49:50.319Z,3.23
2019-01-08T17:52:21.565Z,3.53
2019-01-08T17:54:52.757Z,3.43
2019-01-08T17:57:23.672Z,2.87
2019-01-08T17:59:54.681Z,3.63
2019-01-08T18:02:25.715Z,3.53
2019-01-08T18:04:56.617Z,5.20
2019-01-08T18:07:28.866Z,3.90
2019-01-08T18:10:00.172Z,2.97
2019-01-08T18:12:31.131Z,2.57
2019-01-08T18:15:02.054Z,2.60
2019-01-08T18:17:33.035Z,3.07
2019-01-08T18:20:04.121Z,3.30
2019-01-08T18:22:37.167Z,3.30
2019-01-08T18:25:08.475Z,3.00
2019-01-08T18:27:40.158Z,3.60
2019-01-08T18:30:11.234Z,3.30
2019-01-08T18:32:42.489Z,1.77
2019-01-08T18:35:13.644Z,2.27
2019-01-08T18:37:44.985Z,2.47
2019-01-08T18:40:16.307Z,1.40
2019-01-08T18:42:47.529Z,1.90
2019-01-08T18:45:18.776Z,1.80
2019-01-08T18:47:49.954Z,1.57
2019-01-08T18:50:23.156Z,1.80
2019-01-08T18:52:56.131Z,1.97
2019-01-08T18:55:27.091Z,1.80
2019-01-08T18:57:58.376Z,2.00
2019-01-08T19:00:33.112Z,2.03
2019-01-08T19:03:05.092Z,2.60
2019-01-08T19:05:41.241Z,1.70
2019-01-08T19:08:20.159Z,1.90
2019-01-08T19:10:51.094Z,1.50
2019-01-08T19:13:22.286Z,1.60
2019-01-08T19:15:54.461Z,1.50
2019-01-08T19:18:25.381Z,1.73
2019-01-08T19:20:56.431Z,1.20
2019-01-08T19:23:28.522Z,1.87
2019-01-08T19:25:59.467Z,1.87
2019-01-08T19:28:30.386Z,1.77
2019-01-08T19:31:01.305Z,1.67
2019-01-08T19:33:33.026Z,1.60
2019-01-08T19:36:04.458Z,1.60
2019-01-08T19:38:36.275Z,1.50
2019-01-08T19:41:07.682Z,1.47
2019-01-08T19:43:38.920Z,2.10
2019-01-08T19:46:11.583Z,2.17
2019-01-08T19:48:43.392Z,2.13
2019-01-08T19:51:14.445Z,1.03
2019-01-08T19:53:45.793Z,2.17
2019-01-08T19:56:16.719Z,1.40
2019-01-08T19:58:47.677Z,1.43
2019-01-08T20:01:18.681Z,1.10
2019-01-08T20:03:49.712Z,1.63
2019-01-08T20:06:20.601Z,1.40
2019-01-08T20:08:51.871Z,1.20
2019-01-08T20:11:23.269Z,1.87
2019-01-08T20:13:54.513Z,1.23
2019-01-08T20:16:25.798Z,1.33
2019-01-08T20:18:57.171Z,1.23
2019-01-08T20:21:28.146Z,1.10
2019-01-08T20:24:06.216Z,1.50
2019-01-08T20:26:33.451Z,1.10
2019-01-08T20:29:04.695Z,1.60
2019-01-08T20:31:35.917Z,1.20
2019-01-08T20:34:07.231Z,1.20
2019-01-08T20:36:38.158Z,1.33
2019-01-08T20:39:14.073Z,1.13
2019-01-08T20:41:45.597Z,1.20
2019-01-08T20:44:16.550Z,2.00
2019-01-08T20:46:48.709Z,2.23
2019-01-08T20:49:19.871Z,1.57
2019-01-08T20:51:52.167Z,2.20
2019-01-08T20:54:23.201Z,1.87
2019-01-08T20:56:54.998Z,2.23
2019-01-08T20:59:26.507Z,1.70
2019-01-08T21:01:58.318Z,1.50
2019-01-08T21:04:35.333Z,1.20
2019-01-08T21:07:04.037Z,1.60
2019-01-08T21:09:35.851Z,1.13
2019-01-08T21:12:06.320Z,1.53
2019-01-08T21:14:37.562Z,1.40
2019-01-08T21:17:08.764Z,1.20
2019-01-08T21:19:40.381Z,1.57
2019-01-08T21:22:12.395Z,2.00
2019-01-08T21:24:43.591Z,1.53
2019-01-08T21:27:14.793Z,1.73
2019-01-08T21:29:45.711Z,1.80
2019-01-08T21:32:17.052Z,1.43
2019-01-08T21:34:47.937Z,1.30
2019-01-08T21:37:18.818Z,1.80
2019-01-08T21:39:49.776Z,1.20
2019-01-08T21:42:20.706Z,1.50
2019-01-08T21:44:51.982Z,1.60
2019-01-08T21:47:22.925Z,1.20
2019-01-08T21:49:53.910Z,1.23
2019-01-08T21:52:25.121Z,1.87
2019-01-08T21:54:56.079Z,1.13
2019-01-08T21:57:27.347Z,1.33
2019-01-08T21:59:58.730Z,1.17
2019-01-08T22:02:30.546Z,1.47
2019-01-08T22:05:01.768Z,2.00
2019-01-08T22:07:32.663Z,1.90
2019-01-08T22:10:03.683Z,1.57
2019-01-08T22:12:34.609Z,1.50
2019-01-08T22:15:06.165Z,2.20
2019-01-08T22:17:37.138Z,2.00
2019-01-08T22:20:10.513Z,1.60
2019-01-08T22:22:41.460Z,2.13
2019-01-08T22:25:13.652Z,1.67
2019-01-08T22:27:44.671Z,1.30
2019-01-08T22:30:15.595Z,2.03
2019-01-08T22:32:46.858Z,2.00
2019-01-08T22:35:17.901Z,1.60
2019-01-08T22:37:49.149Z,1.43
2019-01-08T22:40:20.103Z,1.20
2019-01-08T22:42:51.068Z,1.17
2019-01-08T22:45:22.363Z,1.50
2019-01-08T22:47:53.367Z,1.47
2019-01-08T22:50:24.241Z,0.90
2019-01-08T22:52:55.209Z,1.60
2019-01-08T22:55:26.127Z,1.23
2019-01-08T22:57:57.069Z,2.00
2019-01-08T23:00:55.835Z,1.97
2019-01-08T23:03:27.239Z,1.20
2019-01-08T23:05:58.263Z,1.70
2019-01-08T23:08:29.490Z,2.10
2019-01-08T23:11:00.519Z,1.60
2019-01-08T23:13:32.311Z,1.60
2019-01-08T23:16:03.239Z,1.70
2019-01-08T23:18:34.536Z,1.40
2019-01-08T23:21:05.466Z,1.80
2019-01-08T23:23:36.454Z,1.50
2019-01-08T23:26:08.360Z,1.20
2019-01-08T23:28:39.273Z,1.33
2019-01-08T23:31:10.213Z,1.30
2019-01-08T23:33:41.196Z,1.43
2019-01-08T23:36:12.185Z,1.30
2019-01-08T23:38:43.115Z,1.80
2019-01-08T23:41:14.369Z,1.63
2019-01-08T23:43:45.320Z,1.70
2019-01-08T23:46:16.293Z,1.53
2019-01-08T23:48:47.595Z,1.83
2019-01-08T23:51:18.818Z,1.60
2019-01-08T23:53:53.083Z,1.50
2019-01-08T23:56:24.991Z,1.50
2019-01-08T23:58:55.913Z,1.80
